Terminal Aerodrome Forecast
Issued by NWS

Home | Current Version | Previous Version | Text Only | Print | Product List | Glossary On
Versions: 1 2 3 4 5 6 7 8 9 10 11 12 13 14 15 16 17 18 19 20 21 22 23 24 25 26 27 28 29 30 31 32 33 34 35 36 37 38
330
FTUS42 KRAH 171937 AAA
TAFRWI
TAF AMD
KRWI 171937Z 1720/1818 21010KT P6SM SCT015
      TEMPO 1720/1724 22012G18KT BKN012
     FM180000 22008KT P6SM BKN010
     FM181745 29013G21KT P6SM SCT030=

USA.gov is the U.S. government's official web portal to all federal, state and local government web resources and services.